createdAt,value
2019-04-16T00:01:14.996Z,7.23
2019-04-16T00:03:54.038Z,8.00
2019-04-16T00:06:36.401Z,8.23
2019-04-16T00:09:15.819Z,7.90
2019-04-16T00:11:55.229Z,8.70
2019-04-16T00:14:31.428Z,7.97
2019-04-16T00:17:04.745Z,8.50
2019-04-16T00:19:37.819Z,8.37
2019-04-16T00:22:35.072Z,8.30
2019-04-16T00:25:08.280Z,8.03
2019-04-16T00:27:41.103Z,9.37
2019-04-16T00:30:16.523Z,9.50
2019-04-16T00:32:49.302Z,8.70
2019-04-16T00:35:21.807Z,9.53
2019-04-16T00:37:54.599Z,9.40
2019-04-16T00:40:27.644Z,9.50
2019-04-16T00:43:00.738Z,8.87
2019-04-16T00:45:33.457Z,9.10
2019-04-16T00:48:06.363Z,9.57
2019-04-16T00:50:39.157Z,9.67
2019-04-16T00:53:11.852Z,10.00
2019-04-16T00:55:45.177Z,8.00
2019-04-16T00:58:19.691Z,8.63
2019-04-16T01:00:53.443Z,8.27
2019-04-16T01:03:26.178Z,9.17
2019-04-16T01:05:59.009Z,9.47
2019-04-16T01:08:32.020Z,10.07
2019-04-16T01:11:04.984Z,9.77
2019-04-16T01:13:37.897Z,9.23
2019-04-16T01:16:11.150Z,9.07
2019-04-16T01:18:44.108Z,9.60
2019-04-16T01:21:16.710Z,9.20
2019-04-16T01:23:49.653Z,9.07
2019-04-16T01:26:24.278Z,8.17
2019-04-16T01:29:05.286Z,9.50
2019-04-16T01:35:20.948Z,9.70
2019-04-16T01:38:27.637Z,9.47
2019-04-16T01:41:06.036Z,9.10
2019-04-16T01:43:42.671Z,8.20
2019-04-16T01:46:23.646Z,8.43
2019-04-16T01:49:04.486Z,9.37
2019-04-16T01:51:44.621Z,8.50
2019-04-16T01:54:23.660Z,8.10
2019-04-16T01:57:00.509Z,8.93
2019-04-16T01:59:48.868Z,8.97
2019-04-16T02:02:29.527Z,8.73
2019-04-16T02:05:07.377Z,8.90
2019-04-16T02:07:46.494Z,10.03
2019-04-16T02:10:25.788Z,9.53
2019-04-16T02:13:05.702Z,10.73
2019-04-16T02:15:43.177Z,11.03
2019-04-16T02:18:20.532Z,11.27
2019-04-16T02:20:57.842Z,10.83
2019-04-16T02:23:38.189Z,10.57
2019-04-16T02:26:17.169Z,11.07
2019-04-16T02:28:56.539Z,11.30
2019-04-16T02:31:37.687Z,11.03
2019-04-16T02:34:17.274Z,11.30
2019-04-16T02:36:52.046Z,10.53
2019-04-16T02:39:46.981Z,10.90
2019-04-16T02:42:13.837Z,11.30
2019-04-16T02:44:51.069Z,10.47
2019-04-16T02:47:42.390Z,10.53
2019-04-16T02:50:31.937Z,10.10
2019-04-16T02:53:38.346Z,11.20
2019-04-16T02:56:33.469Z,9.97
2019-04-16T02:59:16.891Z,9.40
2019-04-16T03:02:15.850Z,11.43
2019-04-16T03:05:29.074Z,11.90
2019-04-16T03:08:05.012Z,12.33
2019-04-16T03:10:38.383Z,12.00
2019-04-16T03:13:11.464Z,10.93
2019-04-16T03:16:05.889Z,10.47
2019-04-16T03:18:47.363Z,11.70
2019-04-16T03:21:19.674Z,11.20
2019-04-16T03:23:52.625Z,10.93
2019-04-16T03:26:25.578Z,12.97
2019-04-16T03:28:59.444Z,14.47
2019-04-16T03:31:32.423Z,14.60
2019-04-16T03:34:05.446Z,11.83
2019-04-16T03:36:38.797Z,11.53
2019-04-16T03:39:13.676Z,10.50
2019-04-16T03:41:46.263Z,11.30
2019-04-16T03:44:20.158Z,11.53
2019-04-16T03:46:53.070Z,11.47
2019-04-16T03:49:27.831Z,13.20
2019-04-16T03:52:00.542Z,13.50
2019-04-16T03:54:35.377Z,14.30
2019-04-16T03:57:08.256Z,13.10
2019-04-16T03:59:41.642Z,15.90
2019-04-16T04:02:15.528Z,16.20
2019-04-16T04:04:49.628Z,15.67
2019-04-16T04:07:22.568Z,14.83
2019-04-16T04:09:58.657Z,15.97
2019-04-16T04:12:30.532Z,14.27
2019-04-16T04:15:03.525Z,14.20
2019-04-16T04:17:38.736Z,18.23
2019-04-16T04:20:14.859Z,33.00
2019-04-16T04:22:47.331Z,34.17
2019-04-16T04:25:20.602Z,31.63
2019-04-16T04:27:53.666Z,22.93
2019-04-16T04:30:28.715Z,16.83
2019-04-16T04:33:01.743Z,14.43
2019-04-16T04:35:36.417Z,16.03
2019-04-16T04:38:12.262Z,14.57
2019-04-16T04:40:50.282Z,18.40
2019-04-16T04:43:20.816Z,16.17
2019-04-16T04:45:54.372Z,15.87
2019-04-16T04:48:27.528Z,15.13
2019-04-16T04:51:03.776Z,14.87
2019-04-16T04:53:35.505Z,15.63
2019-04-16T04:56:08.886Z,17.47
2019-04-16T04:58:42.004Z,14.63
2019-04-16T05:01:15.296Z,13.73
2019-04-16T05:04:22.502Z,14.80
2019-04-16T05:06:59.151Z,15.80
2019-04-16T05:09:35.599Z,15.83
2019-04-16T05:12:08.340Z,13.80
2019-04-16T05:14:58.473Z,13.67
2019-04-16T05:17:30.659Z,16.10
2019-04-16T05:20:04.039Z,13.50
2019-04-16T05:22:38.381Z,14.30
2019-04-16T05:25:11.643Z,13.70
2019-04-16T05:27:44.463Z,13.77
2019-04-16T05:30:20.856Z,13.50
2019-04-16T05:32:52.419Z,13.87
2019-04-16T05:35:25.870Z,13.53
2019-04-16T05:37:59.135Z,16.10
2019-04-16T05:40:35.016Z,15.13
2019-04-16T05:43:06.879Z,15.20
2019-04-16T05:45:40.480Z,14.93
2019-04-16T05:48:13.689Z,16.57
2019-04-16T05:50:46.966Z,16.10
2019-04-16T05:53:20.155Z,14.23
2019-04-16T05:56:12.546Z,15.70
2019-04-16T05:58:45.647Z,15.87
2019-04-16T06:01:42.401Z,15.77
2019-04-16T06:04:15.743Z,14.40
2019-04-16T06:06:49.011Z,14.83
2019-04-16T06:09:21.979Z,15.67
2019-04-16T06:11:55.121Z,16.07
2019-04-16T06:14:34.429Z,15.67
2019-04-16T06:17:25.899Z,15.03
2019-04-16T06:20:24.057Z,13.47
2019-04-16T06:23:25.141Z,15.00
2019-04-16T06:26:06.255Z,16.20
2019-04-16T06:28:56.352Z,14.77
2019-04-16T06:31:44.643Z,14.50
2019-04-16T06:35:04.904Z,15.30
2019-04-16T06:38:08.840Z,14.50
2019-04-16T06:40:45.241Z,13.83
2019-04-16T06:43:27.394Z,14.17
2019-04-16T06:46:19.585Z,15.90
2019-04-16T06:49:14.303Z,14.90
2019-04-16T06:52:15.811Z,13.33
2019-04-16T06:54:56.729Z,15.07
2019-04-16T06:57:42.948Z,16.83
2019-04-16T07:00:35.279Z,14.47
2019-04-16T07:03:32.420Z,14.70
2019-04-16T07:06:22.379Z,15.47
2019-04-16T07:09:14.316Z,15.80
2019-04-16T07:11:54.504Z,14.20
2019-04-16T07:14:23.888Z,13.33
2019-04-16T07:16:59.740Z,14.27
2019-04-16T07:19:31.884Z,13.77
2019-04-16T07:22:05.155Z,13.00
2019-04-16T07:24:38.574Z,11.87
2019-04-16T07:27:12.132Z,12.20
2019-04-16T07:30:06.900Z,12.53
2019-04-16T07:32:56.078Z,13.20
2019-04-16T07:35:38.789Z,12.53
2019-04-16T07:38:46.145Z,11.90
2019-04-16T07:41:34.034Z,11.23
2019-04-16T07:44:12.302Z,13.13
2019-04-16T07:47:07.653Z,11.50
2019-04-16T16:01:05.987Z,10.43
2019-04-16T16:04:08.051Z,20.53
2019-04-16T16:06:52.169Z,19.97
2019-04-16T16:09:29.874Z,14.33
2019-04-16T16:12:11.467Z,10.77
2019-04-16T16:14:45.037Z,10.30
2019-04-16T16:17:19.489Z,9.40
2019-04-16T16:19:53.495Z,8.63
2019-04-16T16:22:27.227Z,7.47
2019-04-16T16:25:00.781Z,8.67
2019-04-16T16:27:34.459Z,8.37
2019-04-16T16:30:08.415Z,8.67
2019-04-16T16:32:42.093Z,8.80
2019-04-16T16:35:17.799Z,9.23
2019-04-16T16:37:51.489Z,10.10
2019-04-16T16:40:25.123Z,8.70
2019-04-16T16:42:58.604Z,9.43
2019-04-16T16:45:46.390Z,8.93
2019-04-16T16:48:21.914Z,8.37
2019-04-16T16:50:55.276Z,8.40
2019-04-16T16:53:44.895Z,10.30
2019-04-16T16:56:25.347Z,9.80
2019-04-16T16:59:16.893Z,8.40
2019-04-16T17:02:08.613Z,7.73
2019-04-16T17:04:43.837Z,6.97
2019-04-16T17:07:18.085Z,7.80
2019-04-16T17:09:51.260Z,8.40
2019-04-16T17:12:24.663Z,9.97
2019-04-16T17:14:57.695Z,11.07
2019-04-16T17:17:31.120Z,10.87
2019-04-16T17:20:06.239Z,13.30
2019-04-16T17:22:40.981Z,11.30
2019-04-16T17:25:14.544Z,11.80
2019-04-16T17:27:51.927Z,10.03
2019-04-16T17:30:24.803Z,12.17
2019-04-16T17:32:58.478Z,13.60
2019-04-16T17:35:35.942Z,11.70
2019-04-16T17:38:08.409Z,11.00
2019-04-16T17:41:01.874Z,9.63
2019-04-16T17:44:01.929Z,10.67
2019-04-16T17:46:56.913Z,9.47
2019-04-16T17:50:02.525Z,10.53
2019-04-16T17:52:45.504Z,12.60
2019-04-16T17:55:43.534Z,12.57
2019-04-16T17:58:24.209Z,11.90
2019-04-16T18:01:29.886Z,13.27
2019-04-16T18:04:30.747Z,12.60
2019-04-16T18:07:25.883Z,11.83
2019-04-16T18:10:11.375Z,12.20
2019-04-16T18:12:59.082Z,11.80
2019-04-16T18:15:50.937Z,10.30
2019-04-16T18:18:36.469Z,9.83
2019-04-16T18:21:35.175Z,10.80
2019-04-16T18:24:39.550Z,9.60
2019-04-16T18:27:32.934Z,10.47
2019-04-16T18:30:39.191Z,10.77
2019-04-16T18:33:45.322Z,10.87
2019-04-16T18:36:36.418Z,10.43
2019-04-16T18:39:37.099Z,8.40
2019-04-16T18:42:38.709Z,8.30
2019-04-16T18:45:36.963Z,8.50
2019-04-16T18:48:20.304Z,9.07
2019-04-16T18:50:59.962Z,10.03
2019-04-16T18:53:31.489Z,10.17
2019-04-16T18:56:04.581Z,10.57
2019-04-16T18:58:41.555Z,11.60
2019-04-16T19:01:17.448Z,9.63
2019-04-16T19:03:51.367Z,8.70
2019-04-16T19:06:24.860Z,9.30
2019-04-16T19:08:58.621Z,8.40
2019-04-16T19:11:34.820Z,8.63
2019-04-16T19:14:14.037Z,9.27
2019-04-16T19:16:47.454Z,9.50
2019-04-16T19:19:22.238Z,9.00
2019-04-16T19:21:56.248Z,8.83
2019-04-16T19:24:30.356Z,8.13
2019-04-16T19:27:04.320Z,8.13
2019-04-16T19:29:42.833Z,8.43
2019-04-16T19:32:15.822Z,8.53
2019-04-16T19:34:50.013Z,8.20
2019-04-16T19:37:23.591Z,9.30
2019-04-16T19:39:56.926Z,7.77
2019-04-16T19:42:33.222Z,8.37
2019-04-16T19:45:08.634Z,8.03
2019-04-16T19:47:42.325Z,8.40
2019-04-16T19:50:18.051Z,10.07
2019-04-16T19:52:53.073Z,10.97
2019-04-16T19:55:26.599Z,10.40
2019-04-16T19:58:00.331Z,12.20
2019-04-16T20:00:34.447Z,10.57
2019-04-16T20:03:08.304Z,11.67
2019-04-16T20:05:42.252Z,11.20
2019-04-16T20:08:16.210Z,11.60
2019-04-16T20:10:49.703Z,15.60
2019-04-16T20:13:28.991Z,22.00
2019-04-16T20:16:03.012Z,15.00
2019-04-16T20:18:50.289Z,12.97
2019-04-16T20:21:16.381Z,10.30
2019-04-16T20:23:50.094Z,9.90
2019-04-16T20:26:25.581Z,8.33
2019-04-16T20:28:59.332Z,7.00
2019-04-16T20:31:36.932Z,7.27
2019-04-16T20:34:12.419Z,7.53
2019-04-16T20:36:45.286Z,7.30
2019-04-16T20:39:18.720Z,7.50
2019-04-16T20:41:53.114Z,7.33
2019-04-16T20:44:27.690Z,6.93
2019-04-16T20:47:03.348Z,8.13
2019-04-16T20:49:35.492Z,7.40
2019-04-16T20:52:08.757Z,8.17
2019-04-16T20:54:45.603Z,7.20
2019-04-16T20:57:18.747Z,7.50
2019-04-16T20:59:53.771Z,8.00
2019-04-16T21:02:29.451Z,8.10
2019-04-16T21:05:04.500Z,8.90
2019-04-16T21:07:37.835Z,8.90
2019-04-16T21:10:11.211Z,10.10
2019-04-16T21:12:45.379Z,9.93
2019-04-16T21:15:19.111Z,9.80
2019-04-16T21:17:52.253Z,9.97
2019-04-16T21:20:25.103Z,9.57
2019-04-16T21:23:01.567Z,9.20
2019-04-16T21:25:33.500Z,10.10
2019-04-16T21:28:23.884Z,10.07
2019-04-16T21:31:01.092Z,9.20
2019-04-16T21:33:40.023Z,8.80
2019-04-16T21:36:19.159Z,9.07
2019-04-16T21:39:09.672Z,8.77
2019-04-16T21:41:42.571Z,9.30
2019-04-16T21:44:15.683Z,7.80
2019-04-16T21:46:52.017Z,7.17
2019-04-16T21:49:37.857Z,7.00
2019-04-16T21:52:08.009Z,7.17
2019-04-16T21:54:41.429Z,7.20
2019-04-16T21:57:14.936Z,7.27
2019-04-16T21:59:50.270Z,7.27
2019-04-16T22:02:30.149Z,7.40
2019-04-16T22:05:02.981Z,7.63
2019-04-16T22:07:36.057Z,6.57
2019-04-16T22:10:09.436Z,7.17
2019-04-16T22:12:44.805Z,7.17
2019-04-16T22:15:17.255Z,7.33
2019-04-16T22:17:50.015Z,7.43
2019-04-16T22:20:22.927Z,7.33
2019-04-16T22:22:55.806Z,7.27
2019-04-16T22:25:28.773Z,8.13
2019-04-16T22:28:01.680Z,7.33
2019-04-16T22:30:34.941Z,7.43
2019-04-16T22:33:07.715Z,7.80
2019-04-16T22:35:40.785Z,7.57
2019-04-16T22:38:14.472Z,8.17
2019-04-16T22:41:04.731Z,8.40
2019-04-16T22:44:06.286Z,8.83
2019-04-16T22:46:51.146Z,8.50
2019-04-16T22:49:24.157Z,8.37
2019-04-16T22:51:57.071Z,8.70
2019-04-16T22:54:29.873Z,9.23
2019-04-16T22:57:11.112Z,9.23
2019-04-16T22:59:44.281Z,9.10
2019-04-16T23:02:28.987Z,8.60
2019-04-16T23:05:01.724Z,9.20
2019-04-16T23:07:36.583Z,8.93
2019-04-16T23:10:09.963Z,9.13
2019-04-16T23:12:42.933Z,8.37
2019-04-16T23:15:16.015Z,9.37
2019-04-16T23:17:48.868Z,8.43
2019-04-16T23:20:29.687Z,9.63
2019-04-16T23:22:58.245Z,9.80
2019-04-16T23:25:31.347Z,8.90
2019-04-16T23:28:09.451Z,8.97
2019-04-16T23:30:40.179Z,8.50
2019-04-16T23:33:13.087Z,7.90
2019-04-16T23:35:46.215Z,8.10
2019-04-16T23:38:19.287Z,8.10
2019-04-16T23:40:52.483Z,8.03
2019-04-16T23:43:53.520Z,7.20
2019-04-16T23:46:53.309Z,6.70
2019-04-16T23:49:52.504Z,7.60
2019-04-16T23:52:50.683Z,7.67
2019-04-16T23:55:48.986Z,7.57
2019-04-16T23:58:34.389Z,7.33
